sensor_id;sensor_type;location;lat;lon;timestamp;pressure;altitude;pressure_sealevel;temperature;humidity
967;BME280;56108;48.730;9.304;2023-02-20T00:01:02;98695.56;;;7.51;100.00
967;BME280;56108;48.730;9.304;2023-02-20T00:03:13;98691.28;;;7.25;100.00
967;BME280;56108;48.730;9.304;2023-02-20T00:05:21;98700.47;;;7.17;100.00
967;BME280;56108;48.730;9.304;2023-02-20T00:07:29;98701.50;;;7.36;100.00
967;BME280;56108;48.730;9.304;2023-02-20T00:09:40;98701.59;;;7.33;100.00
967;BME280;56108;48.730;9.304;2023-02-20T00:11:48;98696.41;;;7.30;100.00
967;BME280;56108;48.730;9.304;2023-02-20T00:13:56;98694.47;;;7.35;100.00
967;BME280;56108;48.730;9.304;2023-02-20T00:16:06;98695.91;;;7.20;100.00
967;BME280;56108;48.730;9.304;2023-02-20T00:18:17;98701.09;;;7.23;100.00
967;BME280;56108;48.730;9.304;2023-02-20T00:20:25;98688.53;;;7.28;100.00
967;BME280;56108;48.730;9.304;2023-02-20T00:22:34;98693.19;;;7.45;100.00
967;BME280;56108;48.730;9.304;2023-02-20T00:24:44;98685.41;;;7.41;100.00
967;BME280;56108;48.730;9.304;2023-02-20T00:26:52;98678.75;;;7.30;100.00
967;BME280;56108;48.730;9.304;2023-02-20T00:29:00;98673.69;;;7.24;100.00
967;BME280;56108;48.730;9.304;2023-02-20T00:31:12;98669.41;;;7.22;100.00
967;BME280;56108;48.730;9.304;2023-02-20T00:33:22;98673.00;;;7.19;100.00
967;BME280;56108;48.730;9.304;2023-02-20T00:35:30;98667.03;;;7.14;100.00
967;BME280;56108;48.730;9.304;2023-02-20T00:37:38;98674.00;;;7.17;100.00
967;BME280;56108;48.730;9.304;2023-02-20T00:39:51;98680.59;;;7.28;100.00
967;BME280;56108;48.730;9.304;2023-02-20T00:41:59;98684.59;;;7.17;100.00
967;BME280;56108;48.730;9.304;2023-02-20T00:44:07;98686.00;;;7.25;100.00
967;BME280;56108;48.730;9.304;2023-02-20T00:46:15;98693.09;;;7.25;100.00
967;BME280;56108;48.730;9.304;2023-02-20T00:48:26;98697.69;;;7.20;100.00
967;BME280;56108;48.730;9.304;2023-02-20T00:50:54;98714.63;;;7.16;100.00
967;BME280;56108;48.730;9.304;2023-02-20T00:53:02;98720.78;;;7.16;100.00
967;BME280;56108;48.730;9.304;2023-02-20T00:55:13;98705.28;;;7.29;100.00
967;BME280;56108;48.730;9.304;2023-02-20T00:57:22;98711.31;;;7.11;100.00
967;BME280;56108;48.730;9.304;2023-02-20T00:59:31;98712.38;;;7.28;100.00
967;BME280;56108;48.730;9.304;2023-02-20T01:01:39;98708.19;;;7.23;100.00
967;BME280;56108;48.730;9.304;2023-02-20T01:03:47;98703.56;;;7.28;100.00
967;BME280;56108;48.730;9.304;2023-02-20T01:05:56;98702.81;;;7.24;100.00
967;BME280;56108;48.730;9.304;2023-02-20T01:08:05;98707.66;;;7.37;100.00
967;BME280;56108;48.730;9.304;2023-02-20T01:10:18;98707.84;;;7.32;100.00
967;BME280;56108;48.730;9.304;2023-02-20T01:12:26;98705.53;;;7.23;100.00
967;BME280;56108;48.730;9.304;2023-02-20T01:14:35;98717.78;;;7.25;100.00
967;BME280;56108;48.730;9.304;2023-02-20T01:16:47;98718.88;;;7.43;100.00
967;BME280;56108;48.730;9.304;2023-02-20T01:18:55;98707.19;;;7.25;100.00
967;BME280;56108;48.730;9.304;2023-02-20T01:21:04;98709.47;;;7.35;100.00
967;BME280;56108;48.730;9.304;2023-02-20T01:23:12;98704.78;;;7.43;100.00
967;BME280;56108;48.730;9.304;2023-02-20T01:25:22;98694.22;;;7.41;100.00
967;BME280;56108;48.730;9.304;2023-02-20T01:27:31;98692.22;;;7.24;100.00
967;BME280;56108;48.730;9.304;2023-02-20T01:29:39;98691.78;;;7.37;100.00
967;BME280;56108;48.730;9.304;2023-02-20T01:31:48;98685.97;;;7.27;100.00
967;BME280;56108;48.730;9.304;2023-02-20T01:34:05;98691.50;;;7.21;100.00
967;BME280;56108;48.730;9.304;2023-02-20T01:36:14;98681.50;;;7.05;100.00
967;BME280;56108;48.730;9.304;2023-02-20T01:38:24;98686.53;;;6.88;100.00
967;BME280;56108;48.730;9.304;2023-02-20T01:40:34;98675.56;;;6.75;100.00
967;BME280;56108;48.730;9.304;2023-02-20T01:42:42;98679.00;;;6.77;100.00
967;BME280;56108;48.730;9.304;2023-02-20T01:44:50;98682.31;;;6.84;100.00
967;BME280;56108;48.730;9.304;2023-02-20T01:47:14;98676.75;;;6.67;100.00
967;BME280;56108;48.730;9.304;2023-02-20T01:49:28;98680.94;;;6.72;100.00
967;BME280;56108;48.730;9.304;2023-02-20T01:51:41;98675.72;;;6.71;100.00
967;BME280;56108;48.730;9.304;2023-02-20T01:53:49;98677.28;;;6.51;100.00
967;BME280;56108;48.730;9.304;2023-02-20T01:56:02;98677.38;;;6.50;100.00
967;BME280;56108;48.730;9.304;2023-02-20T01:58:15;98682.88;;;6.44;100.00
967;BME280;56108;48.730;9.304;2023-02-20T02:00:24;98675.25;;;6.35;100.00
967;BME280;56108;48.730;9.304;2023-02-20T02:02:34;98683.81;;;6.41;100.00
967;BME280;56108;48.730;9.304;2023-02-20T02:04:45;98678.16;;;6.52;100.00
967;BME280;56108;48.730;9.304;2023-02-20T02:06:54;98682.56;;;6.53;100.00
967;BME280;56108;48.730;9.304;2023-02-20T02:09:11;98688.16;;;6.69;100.00
967;BME280;56108;48.730;9.304;2023-02-20T02:11:26;98682.97;;;6.66;100.00
967;BME280;56108;48.730;9.304;2023-02-20T02:13:36;98677.81;;;6.86;100.00
967;BME280;56108;48.730;9.304;2023-02-20T02:15:44;98675.09;;;6.88;100.00
967;BME280;56108;48.730;9.304;2023-02-20T02:18:13;98672.56;;;6.85;100.00
967;BME280;56108;48.730;9.304;2023-02-20T02:25:50;98658.81;;;6.98;100.00
967;BME280;56108;48.730;9.304;2023-02-20T02:33:39;98656.16;;;6.98;100.00
967;BME280;56108;48.730;9.304;2023-02-20T02:38:51;98663.41;;;6.93;100.00
967;BME280;56108;48.730;9.304;2023-02-20T02:41:08;98652.06;;;7.13;100.00
967;BME280;56108;48.730;9.304;2023-02-20T02:43:27;98661.34;;;7.01;100.00
967;BME280;56108;48.730;9.304;2023-02-20T02:45:44;98659.75;;;6.97;100.00
967;BME280;56108;48.730;9.304;2023-02-20T02:48:05;98666.34;;;7.09;100.00
967;BME280;56108;48.730;9.304;2023-02-20T02:50:17;98668.53;;;7.21;100.00
967;BME280;56108;48.730;9.304;2023-02-20T02:52:27;98661.91;;;7.10;100.00
967;BME280;56108;48.730;9.304;2023-02-20T02:54:55;98660.16;;;7.10;100.00
967;BME280;56108;48.730;9.304;2023-02-20T02:57:19;98650.41;;;7.11;100.00
967;BME280;56108;48.730;9.304;2023-02-20T02:59:30;98654.97;;;7.07;100.00
967;BME280;56108;48.730;9.304;2023-02-20T03:01:44;98658.47;;;7.07;100.00
967;BME280;56108;48.730;9.304;2023-02-20T03:03:57;98662.84;;;7.09;100.00
967;BME280;56108;48.730;9.304;2023-02-20T03:06:08;98651.19;;;6.91;100.00
967;BME280;56108;48.730;9.304;2023-02-20T03:08:26;98654.63;;;6.93;100.00
967;BME280;56108;48.730;9.304;2023-02-20T03:10:42;98654.63;;;6.93;100.00
967;BME280;56108;48.730;9.304;2023-02-20T03:12:53;98653.81;;;6.91;100.00
967;BME280;56108;48.730;9.304;2023-02-20T03:15:05;98657.72;;;6.80;100.00
967;BME280;56108;48.730;9.304;2023-02-20T03:17:29;98652.09;;;6.90;100.00
967;BME280;56108;48.730;9.304;2023-02-20T03:19:41;98650.03;;;6.74;100.00
967;BME280;56108;48.730;9.304;2023-02-20T03:21:54;98647.31;;;6.76;100.00
967;BME280;56108;48.730;9.304;2023-02-20T03:24:06;98654.47;;;6.74;100.00
967;BME280;56108;48.730;9.304;2023-02-20T03:26:25;98649.09;;;6.75;100.00
967;BME280;56108;48.730;9.304;2023-02-20T03:28:38;98648.13;;;6.54;100.00
967;BME280;56108;48.730;9.304;2023-02-20T03:30:51;98647.56;;;6.70;100.00
967;BME280;56108;48.730;9.304;2023-02-20T03:33:07;98645.88;;;6.67;100.00
967;BME280;56108;48.730;9.304;2023-02-20T03:35:31;98644.59;;;6.77;100.00
967;BME280;56108;48.730;9.304;2023-02-20T03:37:54;98641.50;;;6.66;100.00
967;BME280;56108;48.730;9.304;2023-02-20T03:40:15;98642.75;;;6.56;100.00
967;BME280;56108;48.730;9.304;2023-02-20T03:42:47;98652.53;;;6.77;100.00
967;BME280;56108;48.730;9.304;2023-02-20T03:45:13;98654.03;;;6.61;100.00
967;BME280;56108;48.730;9.304;2023-02-20T03:47:24;98659.47;;;6.57;100.00
967;BME280;56108;48.730;9.304;2023-02-20T03:49:37;98670.81;;;6.60;100.00
967;BME280;56108;48.730;9.304;2023-02-20T03:51:49;98663.75;;;6.61;100.00
967;BME280;56108;48.730;9.304;2023-02-20T03:54:13;98671.06;;;6.77;100.00
967;BME280;56108;48.730;9.304;2023-02-20T03:56:25;98667.00;;;6.69;100.00
967;BME280;56108;48.730;9.304;2023-02-20T03:58:42;98671.53;;;6.65;100.00
967;BME280;56108;48.730;9.304;2023-02-20T04:00:54;98667.00;;;6.69;100.00
967;BME280;56108;48.730;9.304;2023-02-20T04:03:07;98656.56;;;6.64;100.00
967;BME280;56108;48.730;9.304;2023-02-20T04:05:22;98654.03;;;6.61;100.00
967;BME280;56108;48.730;9.304;2023-02-20T04:07:38;98658.41;;;6.62;100.00
967;BME280;56108;48.730;9.304;2023-02-20T04:09:49;98656.16;;;6.51;100.00
967;BME280;56108;48.730;9.304;2023-02-20T04:12:01;98656.06;;;6.30;100.00
967;BME280;56108;48.730;9.304;2023-02-20T04:14:15;98655.13;;;6.31;100.00
967;BME280;56108;48.730;9.304;2023-02-20T04:16:28;98648.59;;;6.41;100.00
967;BME280;56108;48.730;9.304;2023-02-20T04:18:37;98647.84;;;6.12;100.00
967;BME280;56108;48.730;9.304;2023-02-20T04:20:48;98641.16;;;6.02;100.00
967;BME280;56108;48.730;9.304;2023-02-20T04:23:05;98635.34;;;5.91;100.00
967;BME280;56108;48.730;9.304;2023-02-20T04:25:19;98630.81;;;5.69;100.00
967;BME280;56108;48.730;9.304;2023-02-20T04:27:32;98635.31;;;5.66;100.00
967;BME280;56108;48.730;9.304;2023-02-20T04:29:50;98627.59;;;5.60;100.00
967;BME280;56108;48.730;9.304;2023-02-20T04:31:58;98628.75;;;5.51;100.00
967;BME280;56108;48.730;9.304;2023-02-20T04:34:10;98625.44;;;5.44;100.00
967;BME280;56108;48.730;9.304;2023-02-20T04:36:18;98623.19;;;5.32;100.00
967;BME280;56108;48.730;9.304;2023-02-20T04:38:27;98632.78;;;5.35;100.00
967;BME280;56108;48.730;9.304;2023-02-20T04:40:37;98624.25;;;5.27;100.00
967;BME280;56108;48.730;9.304;2023-02-20T04:42:45;98627.91;;;5.22;100.00
967;BME280;56108;48.730;9.304;2023-02-20T04:44:56;98619.41;;;5.13;100.00
967;BME280;56108;48.730;9.304;2023-02-20T04:47:10;98617.91;;;5.04;100.00
967;BME280;56108;48.730;9.304;2023-02-20T04:49:20;98621.28;;;5.09;100.00
967;BME280;56108;48.730;9.304;2023-02-20T04:51:31;98608.47;;;4.97;100.00
967;BME280;56108;48.730;9.304;2023-02-20T04:53:39;98610.88;;;5.05;100.00
967;BME280;56108;48.730;9.304;2023-02-20T04:55:47;98615.47;;;4.98;100.00
967;BME280;56108;48.730;9.304;2023-02-20T04:57:57;98608.84;;;4.85;100.00
967;BME280;56108;48.730;9.304;2023-02-20T05:00:17;98613.94;;;4.91;100.00
967;BME280;56108;48.730;9.304;2023-02-20T05:02:25;98620.25;;;4.85;100.00
967;BME280;56108;48.730;9.304;2023-02-20T05:04:34;98630.44;;;4.97;100.00
967;BME280;56108;48.730;9.304;2023-02-20T05:06:43;98631.50;;;4.92;100.00
967;BME280;56108;48.730;9.304;2023-02-20T05:08:51;98630.84;;;4.84;100.00
967;BME280;56108;48.730;9.304;2023-02-20T05:10:59;98624.78;;;4.82;100.00
967;BME280;56108;48.730;9.304;2023-02-20T05:13:07;98622.16;;;4.80;100.00
967;BME280;56108;48.730;9.304;2023-02-20T05:15:18;98612.91;;;4.67;100.00
967;BME280;56108;48.730;9.304;2023-02-20T05:17:26;98622.66;;;4.63;100.00
967;BME280;56108;48.730;9.304;2023-02-20T05:19:34;98623.38;;;4.68;100.00
967;BME280;56108;48.730;9.304;2023-02-20T05:21:42;98619.69;;;4.76;100.00
967;BME280;56108;48.730;9.304;2023-02-20T05:24:12;98620.88;;;4.65;100.00
967;BME280;56108;48.730;9.304;2023-02-20T05:26:20;98626.88;;;4.70;100.00
967;BME280;56108;48.730;9.304;2023-02-20T05:28:28;98631.38;;;4.95;100.00
967;BME280;56108;48.730;9.304;2023-02-20T05:30:41;98624.78;;;4.82;100.00
967;BME280;56108;48.730;9.304;2023-02-20T05:32:49;98624.84;;;4.79;100.00
967;BME280;56108;48.730;9.304;2023-02-20T05:34:57;98626.75;;;4.74;100.00
967;BME280;56108;48.730;9.304;2023-02-20T05:37:05;98630.53;;;4.65;100.00
967;BME280;56108;48.730;9.304;2023-02-20T05:39:13;98625.78;;;4.47;100.00
967;BME280;56108;48.730;9.304;2023-02-20T05:41:21;98619.84;;;4.40;100.00
967;BME280;56108;48.730;9.304;2023-02-20T05:43:29;98619.16;;;4.32;100.00
967;BME280;56108;48.730;9.304;2023-02-20T05:45:37;98620.44;;;4.17;100.00
967;BME280;56108;48.730;9.304;2023-02-20T05:47:48;98630.75;;;4.26;100.00
967;BME280;56108;48.730;9.304;2023-02-20T05:49:55;98625.66;;;4.20;100.00
967;BME280;56108;48.730;9.304;2023-02-20T05:52:04;98626.22;;;4.31;100.00
967;BME280;56108;48.730;9.304;2023-02-20T05:54:15;98621.06;;;4.27;100.00
967;BME280;56108;48.730;9.304;2023-02-20T05:56:23;98618.72;;;4.16;100.00
967;BME280;56108;48.730;9.304;2023-02-20T05:58:33;98617.81;;;4.17;100.00
967;BME280;56108;48.730;9.304;2023-02-20T06:00:41;98623.31;;;4.09;100.00
967;BME280;56108;48.730;9.304;2023-02-20T06:02:52;98623.25;;;4.12;100.00
967;BME280;56108;48.730;9.304;2023-02-20T06:04:59;98618.91;;;4.10;100.00
967;BME280;56108;48.730;9.304;2023-02-20T06:07:09;98624.97;;;4.12;100.00
967;BME280;56108;48.730;9.304;2023-02-20T06:09:17;98626.94;;;4.05;100.00
967;BME280;56108;48.730;9.304;2023-02-20T06:11:25;98623.72;;;3.94;100.00
967;BME280;56108;48.730;9.304;2023-02-20T06:13:33;98629.03;;;3.92;100.00
967;BME280;56108;48.730;9.304;2023-02-20T06:15:41;98629.06;;;3.91;100.00
967;BME280;56108;48.730;9.304;2023-02-20T06:17:52;98622.00;;;3.93;100.00
967;BME280;56108;48.730;9.304;2023-02-20T06:20:00;98622.22;;;3.84;100.00
967;BME280;56108;48.730;9.304;2023-02-20T06:22:08;98616.97;;;3.84;100.00
967;BME280;56108;48.730;9.304;2023-02-20T06:24:15;98622.91;;;3.92;100.00
967;BME280;56108;48.730;9.304;2023-02-20T06:26:23;98620.47;;;3.84;100.00
967;BME280;56108;48.730;9.304;2023-02-20T06:28:32;98626.69;;;3.80;100.00
967;BME280;56108;48.730;9.304;2023-02-20T06:30:40;98627.53;;;3.82;100.00
967;BME280;56108;48.730;9.304;2023-02-20T06:32:48;98626.59;;;3.85;100.00
967;BME280;56108;48.730;9.304;2023-02-20T06:34:59;98628.19;;;3.90;100.00
967;BME280;56108;48.730;9.304;2023-02-20T06:37:06;98618.50;;;3.92;100.00
967;BME280;56108;48.730;9.304;2023-02-20T06:39:14;98620.91;;;4.00;100.00
967;BME280;56108;48.730;9.304;2023-02-20T06:41:22;98624.28;;;4.05;100.00
967;BME280;56108;48.730;9.304;2023-02-20T06:43:42;98626.06;;;4.05;100.00
967;BME280;56108;48.730;9.304;2023-02-20T06:45:50;98628.16;;;4.25;100.00
967;BME280;56108;48.730;9.304;2023-02-20T06:47:58;98634.06;;;4.33;100.00
967;BME280;56108;48.730;9.304;2023-02-20T06:50:10;98637.66;;;4.30;100.00
967;BME280;56108;48.730;9.304;2023-02-20T06:52:18;98645.28;;;4.41;100.00
967;BME280;56108;48.730;9.304;2023-02-20T06:54:26;98650.38;;;4.47;100.00
967;BME280;56108;48.730;9.304;2023-02-20T06:56:35;98657.47;;;4.45;100.00
967;BME280;56108;48.730;9.304;2023-02-20T06:58:43;98652.28;;;4.42;100.00
967;BME280;56108;48.730;9.304;2023-02-20T07:00:51;98653.84;;;4.49;100.00
967;BME280;56108;48.730;9.304;2023-02-20T07:02:59;98659.00;;;4.52;100.00
967;BME280;56108;48.730;9.304;2023-02-20T07:05:12;98659.69;;;4.59;100.00
967;BME280;56108;48.730;9.304;2023-02-20T07:07:20;98672.69;;;4.66;100.00
967;BME280;56108;48.730;9.304;2023-02-20T07:09:28;98668.19;;;4.70;100.00
967;BME280;56108;48.730;9.304;2023-02-20T07:11:36;98668.13;;;4.71;100.00
967;BME280;56108;48.730;9.304;2023-02-20T07:13:44;98666.97;;;4.82;100.00
967;BME280;56108;48.730;9.304;2023-02-20T07:15:52;98674.81;;;4.83;100.00
967;BME280;56108;48.730;9.304;2023-02-20T07:18:01;98679.00;;;4.90;100.00
967;BME280;56108;48.730;9.304;2023-02-20T07:20:13;98675.03;;;5.07;100.00
967;BME280;56108;48.730;9.304;2023-02-20T07:22:21;98682.16;;;5.03;100.00
967;BME280;56108;48.730;9.304;2023-02-20T07:24:29;98681.78;;;5.15;100.00
967;BME280;56108;48.730;9.304;2023-02-20T07:26:40;98687.75;;;5.22;100.00
967;BME280;56108;48.730;9.304;2023-02-20T07:28:48;98692.88;;;5.27;100.00
967;BME280;56108;48.730;9.304;2023-02-20T07:30:58;98692.50;;;5.67;100.00
967;BME280;56108;48.730;9.304;2023-02-20T07:33:06;98696.47;;;6.33;100.00
967;BME280;56108;48.730;9.304;2023-02-20T07:35:17;98707.19;;;6.78;100.00
967;BME280;56108;48.730;9.304;2023-02-20T07:37:25;98689.88;;;7.17;100.00
967;BME280;56108;48.730;9.304;2023-02-20T07:39:33;98690.84;;;7.14;98.21
967;BME280;56108;48.730;9.304;2023-02-20T07:41:41;98701.09;;;7.47;96.59
967;BME280;56108;48.730;9.304;2023-02-20T07:44:08;98702.06;;;7.66;94.00
967;BME280;56108;48.730;9.304;2023-02-20T07:46:16;98706.50;;;7.44;93.54
967;BME280;56108;48.730;9.304;2023-02-20T07:48:24;98703.84;;;7.44;94.53
967;BME280;56108;48.730;9.304;2023-02-20T07:50:35;98693.19;;;7.45;95.33
967;BME280;56108;48.730;9.304;2023-02-20T07:52:43;98686.09;;;7.46;93.25
967;BME280;56108;48.730;9.304;2023-02-20T07:54:52;98686.41;;;7.60;93.73
967;BME280;56108;48.730;9.304;2023-02-20T07:57:00;98688.03;;;7.64;92.25
967;BME280;56108;48.730;9.304;2023-02-20T07:59:08;98684.97;;;7.51;92.20
967;BME280;56108;48.730;9.304;2023-02-20T08:01:17;98686.41;;;7.38;92.56
967;BME280;56108;48.730;9.304;2023-02-20T08:03:25;98685.56;;;7.38;94.17
967;BME280;56108;48.730;9.304;2023-02-20T08:05:36;98680.38;;;7.56;94.15
967;BME280;56108;48.730;9.304;2023-02-20T08:07:53;98677.50;;;7.63;93.09
967;BME280;56108;48.730;9.304;2023-02-20T08:10:02;98678.41;;;7.83;91.44
967;BME280;56108;48.730;9.304;2023-02-20T08:12:10;98673.47;;;7.74;91.96
967;BME280;56108;48.730;9.304;2023-02-20T08:14:20;98665.66;;;7.71;91.01
967;BME280;56108;48.730;9.304;2023-02-20T08:16:31;98668.28;;;7.71;90.78
967;BME280;56108;48.730;9.304;2023-02-20T08:18:40;98669.81;;;7.77;89.98
967;BME280;56108;48.730;9.304;2023-02-20T08:20:51;98670.25;;;7.66;90.74
967;BME280;56108;48.730;9.304;2023-02-20T08:22:59;98667.19;;;7.55;90.61
967;BME280;56108;48.730;9.304;2023-02-20T08:25:09;98666.50;;;7.50;92.02
967;BME280;56108;48.730;9.304;2023-02-20T08:27:17;98669.72;;;7.58;91.04
967;BME280;56108;48.730;9.304;2023-02-20T08:29:25;98667.88;;;7.60;91.39
967;BME280;56108;48.730;9.304;2023-02-20T08:31:33;98663.13;;;7.68;90.13
967;BME280;56108;48.730;9.304;2023-02-20T08:33:41;98654.44;;;7.65;89.68
967;BME280;56108;48.730;9.304;2023-02-20T08:35:51;98652.28;;;7.74;90.44
967;BME280;56108;48.730;9.304;2023-02-20T08:38:01;98652.28;;;7.74;88.49
967;BME280;56108;48.730;9.304;2023-02-20T08:40:10;98645.44;;;7.69;89.36
967;BME280;56108;48.730;9.304;2023-02-20T08:42:18;98650.78;;;7.89;87.69
967;BME280;56108;48.730;9.304;2023-02-20T08:44:26;98650.38;;;7.98;87.34
967;BME280;56108;48.730;9.304;2023-02-20T08:46:34;98655.16;;;7.90;87.69
967;BME280;56108;48.730;9.304;2023-02-20T08:48:43;98653.44;;;7.89;87.38
967;BME280;56108;48.730;9.304;2023-02-20T08:50:54;98652.19;;;7.98;86.83
967;BME280;56108;48.730;9.304;2023-02-20T08:53:02;98644.22;;;7.98;87.55
967;BME280;56108;48.730;9.304;2023-02-20T08:55:10;98649.34;;;8.02;88.04
967;BME280;56108;48.730;9.304;2023-02-20T08:57:18;98645.75;;;8.03;87.01
967;BME280;56108;48.730;9.304;2023-02-20T08:59:30;98648.22;;;8.08;87.24
967;BME280;56108;48.730;9.304;2023-02-20T09:01:40;98639.94;;;8.16;87.26
967;BME280;56108;48.730;9.304;2023-02-20T09:03:48;98635.81;;;8.29;86.96
967;BME280;56108;48.730;9.304;2023-02-20T09:05:59;98642.63;;;8.34;84.26
967;BME280;56108;48.730;9.304;2023-02-20T09:08:07;98647.03;;;8.35;84.62
967;BME280;56108;48.730;9.304;2023-02-20T09:10:16;98637.63;;;8.49;84.35
967;BME280;56108;48.730;9.304;2023-02-20T09:12:25;98628.25;;;8.60;82.56
967;BME280;56108;48.730;9.304;2023-02-20T09:14:32;98639.22;;;8.53;82.64
967;BME280;56108;48.730;9.304;2023-02-20T09:16:41;98638.63;;;8.67;81.57
967;BME280;56108;48.730;9.304;2023-02-20T09:18:49;98624.66;;;9.01;79.99
967;BME280;56108;48.730;9.304;2023-02-20T09:21:07;98640.25;;;9.45;77.59
967;BME280;56108;48.730;9.304;2023-02-20T09:23:27;98639.00;;;10.24;72.69
967;BME280;56108;48.730;9.304;2023-02-20T09:25:35;98646.34;;;10.69;69.36
967;BME280;56108;48.730;9.304;2023-02-20T09:27:43;98645.88;;;11.28;66.04
967;BME280;56108;48.730;9.304;2023-02-20T09:29:51;98666.97;;;12.70;59.84
967;BME280;56108;48.730;9.304;2023-02-20T09:31:59;98679.44;;;13.96;55.95
967;BME280;56108;48.730;9.304;2023-02-20T09:34:07;98686.38;;;14.66;53.62
967;BME280;56108;48.730;9.304;2023-02-20T09:36:18;98704.53;;;16.36;48.95
967;BME280;56108;48.730;9.304;2023-02-20T09:38:26;98711.94;;;16.56;47.28
967;BME280;56108;48.730;9.304;2023-02-20T09:40:34;98727.59;;;18.21;43.57
967;BME280;56108;48.730;9.304;2023-02-20T09:42:50;98735.13;;;18.82;40.69
967;BME280;56108;48.730;9.304;2023-02-20T09:45:05;98738.63;;;19.66;38.89
967;BME280;56108;48.730;9.304;2023-02-20T09:47:28;98747.34;;;20.39;37.54
967;BME280;56108;48.730;9.304;2023-02-20T09:49:37;98747.22;;;21.74;35.58
967;BME280;56108;48.730;9.304;2023-02-20T09:51:50;98747.75;;;21.87;34.92
967;BME280;56108;48.730;9.304;2023-02-20T09:54:02;98713.34;;;22.61;33.42
967;BME280;56108;48.730;9.304;2023-02-20T09:56:16;98700.94;;;23.20;32.71
967;BME280;56108;48.730;9.304;2023-02-20T09:58:31;98712.09;;;23.17;32.12
967;BME280;56108;48.730;9.304;2023-02-20T10:00:46;98708.44;;;23.52;31.68
967;BME280;56108;48.730;9.304;2023-02-20T10:03:00;98705.97;;;21.80;32.60
967;BME280;56108;48.730;9.304;2023-02-20T10:05:19;98693.06;;;21.18;34.76
967;BME280;56108;48.730;9.304;2023-02-20T10:07:35;98688.28;;;20.24;35.37
967;BME280;56108;48.730;9.304;2023-02-20T10:09:44;98680.59;;;18.46;38.82
967;BME280;56108;48.730;9.304;2023-02-20T10:12:00;98665.56;;;18.00;40.06
967;BME280;56108;48.730;9.304;2023-02-20T10:14:33;98659.25;;;17.67;41.78
967;BME280;56108;48.730;9.304;2023-02-20T10:16:50;98645.84;;;17.45;41.74
967;BME280;56108;48.730;9.304;2023-02-20T10:19:13;98635.44;;;16.49;43.52
967;BME280;56108;48.730;9.304;2023-02-20T10:21:35;98636.00;;;15.95;44.88
967;BME280;56108;48.730;9.304;2023-02-20T10:23:53;98637.44;;;15.38;47.27
967;BME280;56108;48.730;9.304;2023-02-20T10:26:13;98626.00;;;15.60;46.84
967;BME280;56108;48.730;9.304;2023-02-20T10:28:24;98627.94;;;16.65;44.62
967;BME280;56108;48.730;9.304;2023-02-20T10:30:37;98631.75;;;17.41;43.18
967;BME280;56108;48.730;9.304;2023-02-20T10:32:51;98645.06;;;17.77;41.53
967;BME280;56108;48.730;9.304;2023-02-20T10:35:05;98640.47;;;18.52;41.80
967;BME280;56108;48.730;9.304;2023-02-20T10:37:16;98642.69;;;17.94;41.51
967;BME280;56108;48.730;9.304;2023-02-20T10:39:28;98644.69;;;18.45;41.05
967;BME280;56108;48.730;9.304;2023-02-20T10:41:42;98640.00;;;19.10;40.05
967;BME280;56108;48.730;9.304;2023-02-20T10:44:01;98640.69;;;19.33;38.82
967;BME280;56108;48.730;9.304;2023-02-20T10:46:16;98642.31;;;19.95;38.40
967;BME280;56108;48.730;9.304;2023-02-20T10:48:29;98641.56;;;19.84;37.34
967;BME280;56108;48.730;9.304;2023-02-20T10:50:44;98639.03;;;19.51;38.51
967;BME280;56108;48.730;9.304;2023-02-20T10:52:58;98638.78;;;19.54;37.41
967;BME280;56108;48.730;9.304;2023-02-20T10:55:15;98644.44;;;19.21;37.39
967;BME280;56108;48.730;9.304;2023-02-20T10:57:29;98631.59;;;19.03;39.17
967;BME280;56108;48.730;9.304;2023-02-20T10:59:42;98638.16;;;19.41;38.34
967;BME280;56108;48.730;9.304;2023-02-20T11:01:57;98637.03;;;19.94;36.87
967;BME280;56108;48.730;9.304;2023-02-20T11:04:10;98643.47;;;20.22;35.85
967;BME280;56108;48.730;9.304;2023-02-20T11:06:20;98639.41;;;19.68;37.11
967;BME280;56108;48.730;9.304;2023-02-20T11:08:30;98635.41;;;18.70;39.03
967;BME280;56108;48.730;9.304;2023-02-20T11:10:40;98618.97;;;17.88;40.59
967;BME280;56108;48.730;9.304;2023-02-20T11:12:50;98606.47;;;16.88;42.97
967;BME280;56108;48.730;9.304;2023-02-20T11:15:00;98595.09;;;15.91;46.38
967;BME280;56108;48.730;9.304;2023-02-20T11:17:12;98595.56;;;15.49;46.08
967;BME280;56108;48.730;9.304;2023-02-20T11:19:27;98588.91;;;15.18;47.67
967;BME280;56108;48.730;9.304;2023-02-20T11:21:39;98588.69;;;14.19;49.16
967;BME280;56108;48.730;9.304;2023-02-20T11:23:48;98577.38;;;13.48;50.55
967;BME280;56108;48.730;9.304;2023-02-20T11:26:17;98571.06;;;13.49;52.03
967;BME280;56108;48.730;9.304;2023-02-20T11:28:29;98573.78;;;13.62;50.88
967;BME280;56108;48.730;9.304;2023-02-20T11:30:41;98556.63;;;13.52;53.09
967;BME280;56108;48.730;9.304;2023-02-20T11:32:59;98564.75;;;13.23;52.77
967;BME280;56108;48.730;9.304;2023-02-20T11:37:37;98556.63;;;13.25;52.68
967;BME280;56108;48.730;9.304;2023-02-20T11:39:59;98551.81;;;13.30;52.68
967;BME280;56108;48.730;9.304;2023-02-20T11:42:14;98546.63;;;13.41;53.34
967;BME280;56108;48.730;9.304;2023-02-20T11:44:24;98543.81;;;13.30;52.93
967;BME280;56108;48.730;9.304;2023-02-20T11:46:32;98547.25;;;13.32;53.17
967;BME280;56108;48.730;9.304;2023-02-20T11:48:58;98535.16;;;13.12;54.30
967;BME280;56108;48.730;9.304;2023-02-20T11:51:33;98521.69;;;13.14;53.98
967;BME280;56108;48.730;9.304;2023-02-20T11:53:42;98523.59;;;13.12;54.09
967;BME280;56108;48.730;9.304;2023-02-20T11:56:06;98520.28;;;12.94;55.15
967;BME280;56108;48.730;9.304;2023-02-20T11:58:25;98516.63;;;13.23;54.08
967;BME280;56108;48.730;9.304;2023-02-20T12:00:45;98509.41;;;12.97;54.28
967;BME280;56108;48.730;9.304;2023-02-20T12:02:57;98506.00;;;12.95;54.58
967;BME280;56108;48.730;9.304;2023-02-20T12:05:12;98501.25;;;13.13;54.45
967;BME280;56108;48.730;9.304;2023-02-20T12:07:26;98503.47;;;13.06;54.42
967;BME280;56108;48.730;9.304;2023-02-20T12:09:34;98497.38;;;13.04;55.42
967;BME280;56108;48.730;9.304;2023-02-20T12:11:42;98496.03;;;13.11;55.54
967;BME280;56108;48.730;9.304;2023-02-20T12:13:57;98486.97;;;12.99;55.49